EGVP - Middle Wallop
Distance from station: E 5mi, 14km
Updated: 10/18/2017 1:50am
Overcast
Overcast
 Wind from NE
Wind: NE 8 mph , 13 km/h
Temperature: 52°F , 11°C
Dew Point: 50°F , 10°C
Humidity: 94%
Barometer: 29.85 inHg , 1011 hPa
Clouds: Overcast
Visibility: 6 miles , 10 km
Cloud details: Overcast 1100 ft
2017/10/18 08:50 EGVP 180850Z 05007KT 9999 OVC011 11/10 Q1011 GRN TEMPO 5000 RADZ GRN